This is the latest recevied weather packets stored in our database for station/object KC4BAM. If no packets are shown the sender has not sent any weather packets the latest 1 day(s).
| Time | Temp. | Humidity | Pressure | Rain* | Wind** | Luminosity | Snow |
|---|---|---|---|---|---|---|---|
| 1778001008 | 18.33° C | 78% | 1000.6 hPa | 0 mm | 1.79 m/s, 215° | 86 W/m² | - |
| 1778000704 | 18.33° C | 79% | 1000.6 hPa | 0 mm | 0.89 m/s, 206° | 98 W/m² | - |
| 1778000399 | 18.33° C | 80% | 1000.5 hPa | 0 mm | 1.79 m/s, 203° | 121 W/m² | - |
| 1778000096 | 17.78° C | 80% | 1000.7 hPa | 0 mm | 1.79 m/s, 213° | 125 W/m² | - |
| 1777999791 | 17.78° C | 80% | 1000.7 hPa | 0 mm | 1.34 m/s, 226° | 84 W/m² | - |
| 1777999488 | 17.78° C | 80% | 1000.7 hPa | 0 mm | 2.68 m/s, 234° | 99 W/m² | - |
| 1777999186 | 17.78° C | 80% | 1000.6 hPa | 1.27 mm | 0.45 m/s, 192° | 117 W/m² | - |
| 1777998885 | 17.78° C | 80% | 1001 hPa | 1.27 mm | 1.34 m/s, 194° | 136 W/m² | - |
| 1777998584 | 17.78° C | 79% | 1001 hPa | 1.78 mm | 1.34 m/s, 210° | 140 W/m² | - |
| 1777998279 | 17.78° C | 77% | 1001.4 hPa | 1.78 mm | 2.24 m/s, 239° | 119 W/m² | - |
| 1777997976 | 18.33° C | 77% | 1001.6 hPa | 0 mm | 0.89 m/s, 224° | 89 W/m² | - |
| 1777997672 | 18.33° C | 75% | 1001.6 hPa | 0 mm | 0.89 m/s, 200° | 60 W/m² | - |
| 1777997370 | 18.33° C | 74% | 1001.9 hPa | 0 mm | 1.79 m/s, 210° | 59 W/m² | - |
| 1777997068 | 18.89° C | 73% | 1001.9 hPa | 0 mm | 1.34 m/s, 189° | 68 W/m² | - |
| 1777996764 | 18.89° C | 71% | 1001.7 hPa | 0 mm | 2.24 m/s, 200° | 60 W/m² | - |
| 1777996461 | 19.44° C | 69% | 1001.6 hPa | 0 mm | 4.02 m/s, 234° | 41 W/m² | - |
| 1777996158 | 19.44° C | 68% | 1001.8 hPa | 0 mm | 3.13 m/s, 238° | 44 W/m² | - |
| 1777995854 | 19.44° C | 68% | 1001.7 hPa | 0 mm | 1.34 m/s, 161° | 51 W/m² | - |
| 1777995550 | 19.44° C | 68% | 1001.4 hPa | 0 mm | 2.24 m/s, 204° | 49 W/m² | - |
| 1777995247 | 19.44° C | 67% | 1001.6 hPa | 0 mm | 1.79 m/s, 201° | 55 W/m² | - |
| 1777994944 | 19.44° C | 68% | 1001.7 hPa | 0 mm | 1.79 m/s, 195° | 63 W/m² | - |
| 1777994642 | 19.44° C | 67% | 1001.9 hPa | 0 mm | 4.02 m/s, 229° | 68 W/m² | - |
| 1777994341 | 19.44° C | 67% | 1001.9 hPa | 0 mm | 2.68 m/s, 166° | 63 W/m² | - |
| 1777994038 | 19.44° C | 67% | 1001.7 hPa | 0 mm | 2.68 m/s, 216° | 75 W/m² | - |
| 1777993735 | 19.44° C | 67% | 1001.7 hPa | 0 mm | 2.24 m/s, 216° | 72 W/m² | - |
* Rain latest hour (hover to see other rain measurements)
** Current wind speed in m/s (hover to see current wind gust speed)